Time;durP1;ratioP1;P1;durP2;ratioP2;P2;SDS_P1;SDS_P2;PMS_P1;PMS_P2;Temp;Humidity;BMP_temperature;BMP_pressure;BME280_temperature;BME280_humidity;BME280_pressure;Samples;Min_cycle;Max_cycle;Signal;HPM_P1;HPM_P2
2021/05/13 00:01:23;;;;;;;3.50;2.35;;;;;;;12.04;91.02;99727.38;5003418;28;20052;-78
2021/05/13 00:03:50;;;;;;;2.67;2.00;;;;;;;12.03;90.76;99720.38;5001196;28;20034;-78
2021/05/13 00:06:16;;;;;;;3.53;2.47;;;;;;;12.01;91.17;99711.59;5003529;28;20042;-78
2021/05/13 00:08:42;;;;;;;2.95;2.17;;;;;;;11.94;90.65;99710.00;5009542;28;20104;-78
2021/05/13 00:11:09;;;;;;;4.03;2.92;;;;;;;11.90;91.51;99717.16;5005243;28;20129;-77
2021/05/13 00:13:36;;;;;;;3.70;2.85;;;;;;;11.95;91.35;99712.63;5006643;28;20467;-78
2021/05/13 00:16:03;;;;;;;3.55;2.45;;;;;;;11.99;91.17;99714.25;4994799;28;20037;-78
2021/05/13 00:18:29;;;;;;;4.03;2.97;;;;;;;11.95;90.96;99707.34;5001083;28;20033;-77
2021/05/13 00:20:55;;;;;;;5.68;3.30;;;;;;;11.92;91.48;99709.16;5001405;28;20404;-77
2021/05/13 00:23:21;;;;;;;4.55;2.70;;;;;;;11.92;91.89;99714.44;5001926;28;20105;-77
2021/05/13 00:25:51;;;;;;;3.90;3.08;;;;;;;11.92;91.93;99710.06;5003420;28;20141;-77
2021/05/13 00:28:17;;;;;;;4.88;4.03;;;;;;;11.87;91.33;99705.75;5001120;28;20046;-76
2021/05/13 00:30:43;;;;;;;3.50;2.78;;;;;;;11.89;92.28;99709.25;4999033;28;20034;-77
2021/05/13 00:33:09;;;;;;;3.90;3.13;;;;;;;11.91;92.07;99707.44;5002234;28;20030;-76
2021/05/13 00:35:34;;;;;;;4.85;4.03;;;;;;;11.88;91.86;99707.53;5000492;28;20550;-76
2021/05/13 00:38:00;;;;;;;3.85;2.90;;;;;;;11.89;91.95;99710.09;5000871;28;20073;-76
2021/05/13 00:40:25;;;;;;;4.43;3.53;;;;;;;11.89;91.58;99699.53;5025093;28;20061;-76
2021/05/13 00:42:51;;;;;;;5.70;4.32;;;;;;;11.91;92.04;99703.00;5001953;28;20378;-76
2021/05/13 00:45:18;;;;;;;5.03;3.58;;;;;;;11.96;92.30;99703.78;5000865;28;20049;-76
2021/05/13 00:50:21;;;;;;;4.32;3.58;;;;;;;11.95;91.87;99701.19;5004624;28;20044;-76
2021/05/13 00:52:47;;;;;;;4.43;3.50;;;;;;;11.94;91.53;99695.00;5005706;28;20038;-77
2021/05/13 00:55:15;;;;;;;7.72;5.60;;;;;;;11.90;92.24;99700.44;5009359;28;20160;-76
2021/05/13 00:57:44;;;;;;;5.70;4.38;;;;;;;11.96;91.87;99689.69;5004330;28;20041;-77
2021/05/13 01:02:58;;;;;;;5.70;4.88;;;;;;;12.00;90.99;99699.28;5018387;28;20028;-77
2021/05/13 01:05:25;;;;;;;5.88;4.63;;;;;;;12.01;91.23;99698.38;5005543;28;20045;-77
2021/05/13 01:07:50;;;;;;;6.63;5.47;;;;;;;12.02;90.72;99698.31;5012978;28;20049;-77
2021/05/13 01:10:17;;;;;;;6.25;5.43;;;;;;;11.92;91.10;99695.94;5018336;28;20038;-77
2021/05/13 01:12:44;;;;;;;7.05;6.22;;;;;;;11.91;91.12;99692.44;5003807;28;20042;-79
2021/05/13 01:15:21;;;;;;;12.30;7.97;;;;;;;11.92;92.01;99690.66;5027124;28;20038;-79
2021/05/13 01:17:58;;;;;;;7.38;6.13;;;;;;;11.96;91.67;99692.34;5003668;28;20489;-79
2021/05/13 01:20:25;;;;;;;6.97;6.28;;;;;;;11.96;91.31;99687.03;5002789;28;20042;-79
2021/05/13 01:22:51;;;;;;;11.20;7.30;;;;;;;11.91;90.89;99691.56;5004298;28;20033;-79
2021/05/13 01:25:16;;;;;;;9.38;6.90;;;;;;;11.91;91.08;99676.56;5005030;28;20120;-79
2021/05/13 01:27:41;;;;;;;8.85;7.40;;;;;;;11.87;91.65;99674.03;5002806;28;20080;-79
2021/05/13 01:30:07;;;;;;;9.63;7.18;;;;;;;11.90;91.39;99674.00;5005068;28;20034;-78
2021/05/13 01:32:32;;;;;;;9.88;7.80;;;;;;;11.92;90.92;99677.44;5004533;28;20041;-79
2021/05/13 01:34:58;;;;;;;9.77;7.97;;;;;;;11.87;90.81;99668.75;5002045;28;20455;-79
2021/05/13 01:37:23;;;;;;;10.68;8.18;;;;;;;11.80;91.17;99671.53;5009615;28;20446;-79
2021/05/13 01:39:50;;;;;;;8.93;8.00;;;;;;;11.82;91.26;99666.22;5004442;28;20744;-79
2021/05/13 01:42:15;;;;;;;10.40;7.07;;;;;;;11.78;91.16;99662.75;5011172;28;20097;-79
2021/05/13 01:44:41;;;;;;;10.38;7.13;;;;;;;11.81;91.32;99670.59;5006291;28;20045;-79
2021/05/13 01:47:07;;;;;;;11.02;8.32;;;;;;;11.80;90.97;99665.38;5003921;28;20038;-79
2021/05/13 01:49:33;;;;;;;9.45;7.82;;;;;;;11.82;91.01;99655.63;5004051;28;20034;-79
2021/05/13 01:51:59;;;;;;;8.38;6.78;;;;;;;11.78;90.66;99661.91;5005672;28;20038;-79
2021/05/13 01:54:24;;;;;;;14.30;9.13;;;;;;;11.71;91.14;99658.56;5003003;28;20113;-79
2021/05/13 01:56:49;;;;;;;11.43;8.35;;;;;;;11.72;90.88;99660.28;5003704;28;20034;-79
2021/05/13 01:59:15;;;;;;;10.45;7.07;;;;;;;11.74;90.41;99663.75;5005106;28;20504;-79
2021/05/13 02:01:40;;;;;;;9.82;7.18;;;;;;;11.72;90.77;99652.34;5001618;28;20488;-79
2021/05/13 02:04:06;;;;;;;12.90;8.82;;;;;;;11.66;91.52;99654.25;5008574;28;20389;-79
2021/05/13 02:06:31;;;;;;;10.82;7.57;;;;;;;11.66;90.93;99663.09;5003492;28;20026;-79
2021/05/13 02:08:56;;;;;;;9.82;7.65;;;;;;;11.67;90.93;99658.66;5004857;28;20408;-79
2021/05/13 02:11:22;;;;;;;9.77;7.85;;;;;;;11.66;91.17;99646.31;5023205;28;20050;-78
2021/05/13 02:13:47;;;;;;;8.82;6.80;;;;;;;11.71;91.29;99652.38;5012143;28;20030;-79
2021/05/13 02:16:12;;;;;;;11.10;8.07;;;;;;;11.69;91.33;99648.91;5001253;28;20038;-79
2021/05/13 02:18:39;;;;;;;12.00;7.95;;;;;;;11.68;91.05;99642.75;5028198;28;20067;-79
2021/05/13 02:21:04;;;;;;;11.73;7.78;;;;;;;11.68;91.10;99648.03;5018692;28;20034;-79
2021/05/13 02:23:30;;;;;;;10.85;6.82;;;;;;;11.72;90.71;99639.13;5003741;28;20034;-78
2021/05/13 02:25:56;;;;;;;7.88;6.50;;;;;;;11.64;90.91;99638.44;5002350;28;20404;-79
2021/05/13 02:28:21;;;;;;;10.70;8.13;;;;;;;11.59;91.33;99629.78;5004220;28;20042;-80
2021/05/13 02:30:47;;;;;;;11.25;8.05;;;;;;;11.63;91.05;99637.59;5003699;28;20042;-79
2021/05/13 02:33:12;;;;;;;8.00;6.10;;;;;;;11.68;90.73;99641.88;5001682;28;20038;-78
2021/05/13 02:35:38;;;;;;;10.10;7.40;;;;;;;11.61;90.43;99636.75;5004095;28;20105;-79
2021/05/13 02:38:04;;;;;;;10.70;7.47;;;;;;;11.59;90.81;99633.28;5024586;28;20136;-79
2021/05/13 02:40:29;;;;;;;10.57;7.43;;;;;;;11.64;90.91;99635.81;5005177;28;20026;-79
2021/05/13 02:42:55;;;;;;;10.77;6.90;;;;;;;11.65;90.80;99628.75;5001330;28;20504;-79
2021/05/13 02:45:20;;;;;;;8.75;6.47;;;;;;;11.61;91.21;99625.31;5003639;28;20044;-78
2021/05/13 02:47:45;;;;;;;8.23;6.00;;;;;;;11.62;90.23;99642.91;5003698;28;20049;-78
2021/05/13 02:50:13;;;;;;;8.07;6.47;;;;;;;11.57;89.84;99627.16;4999599;28;20034;-78
2021/05/13 02:52:39;;;;;;;7.65;5.38;;;;;;;11.53;90.43;99622.00;5002770;28;20038;-78
2021/05/13 02:55:06;;;;;;;9.65;7.53;;;;;;;11.44;90.82;99623.06;5002818;28;20133;-79
2021/05/13 02:57:32;;;;;;;11.70;7.03;;;;;;;11.46;91.26;99625.69;5001017;28;20046;-79
2021/05/13 03:00:16;;;;;;;7.53;5.88;;;;;;;11.46;90.29;99620.41;5003478;28;20393;-79
2021/05/13 03:02:43;;;;;;;11.27;5.82;;;;;;;11.47;90.75;99622.13;5003462;28;20041;-79
2021/05/13 03:05:09;;;;;;;12.15;6.65;;;;;;;11.45;90.62;99626.56;5002893;28;20065;-79
2021/05/13 03:07:41;;;;;;;9.95;7.72;;;;;;;11.41;90.96;99612.59;5000939;28;20030;-79
2021/05/13 03:10:14;;;;;;;9.52;7.22;;;;;;;11.37;91.13;99609.16;5006500;28;20049;-79
2021/05/13 03:12:41;;;;;;;10.20;7.15;;;;;;;11.38;91.28;99616.16;5019289;28;20129;-79
2021/05/13 03:15:07;;;;;;;8.65;6.03;;;;;;;11.38;90.79;99610.88;5022360;28;20080;-79
2021/05/13 03:17:32;;;;;;;10.52;5.78;;;;;;;11.36;90.25;99612.69;5004494;28;20496;-78
2021/05/13 03:19:59;;;;;;;7.28;6.53;;;;;;;11.30;91.15;99604.91;5001779;28;20137;-79
2021/05/13 03:22:25;;;;;;;9.90;6.20;;;;;;;11.35;90.97;99610.97;5003001;28;20041;-79
2021/05/13 03:24:58;;;;;;;8.48;6.63;;;;;;;11.32;91.31;99602.25;5001913;28;20105;-79
2021/05/13 03:29:53;;;;;;;9.73;6.88;;;;;;;11.35;90.93;99604.81;5000761;28;20407;-79
2021/05/13 03:32:19;;;;;;;8.48;6.60;;;;;;;11.32;91.25;99610.19;5002779;28;20045;-78
2021/05/13 03:34:44;;;;;;;10.23;6.55;;;;;;;11.27;91.39;99601.50;5002940;28;20037;-79
2021/05/13 03:37:10;;;;;;;11.85;7.35;;;;;;;11.26;91.27;99607.66;5003229;28;20030;-78
2021/05/13 03:39:35;;;;;;;11.85;7.50;;;;;;;11.25;91.46;99600.66;5002424;28;20112;-79
2021/05/13 03:42:01;;;;;;;9.95;8.15;;;;;;;11.24;91.75;99602.44;5000469;28;20026;-79
2021/05/13 03:44:26;;;;;;;11.18;7.60;;;;;;;11.28;91.81;99596.16;5002571;28;20037;-79
2021/05/13 03:46:51;;;;;;;8.55;6.80;;;;;;;11.29;91.01;99597.91;5002254;28;20041;-79
2021/05/13 03:49:17;;;;;;;9.07;6.15;;;;;;;11.26;90.92;99600.59;5000896;28;20180;-79
2021/05/13 03:51:42;;;;;;;12.32;7.18;;;;;;;11.25;91.07;99585.66;5003347;28;20096;-79
2021/05/13 03:54:07;;;;;;;10.90;6.90;;;;;;;11.25;91.32;99584.81;5001693;28;20038;-79
2021/05/13 03:56:33;;;;;;;10.05;6.45;;;;;;;11.24;90.78;99573.38;5004135;28;20065;-79
2021/05/13 03:59:04;;;;;;;9.38;6.85;;;;;;;11.24;91.14;99578.66;5000131;28;20080;-78
2021/05/13 04:03:54;;;;;;;10.32;6.53;;;;;;;11.23;91.24;99562.84;5003235;28;20068;-78
2021/05/13 04:06:20;;;;;;;9.02;6.45;;;;;;;11.20;91.73;99561.16;5016188;28;20034;-79
2021/05/13 04:08:49;;;;;;;7.53;6.72;;;;;;;11.23;91.65;99563.69;5003504;28;20038;-80
2021/05/13 04:11:15;;;;;;;10.45;6.65;;;;;;;11.21;91.54;99568.16;5002407;28;20084;-78
2021/05/13 04:13:41;;;;;;;9.73;7.45;;;;;;;11.20;91.94;99563.78;5000873;28;20034;-79
2021/05/13 04:16:07;;;;;;;11.10;8.40;;;;;;;11.22;91.55;99569.91;5002958;28;20087;-79
2021/05/13 04:18:33;;;;;;;10.93;7.68;;;;;;;11.26;91.46;99571.56;5025595;28;20042;-78
2021/05/13 04:20:58;;;;;;;11.63;7.88;;;;;;;11.23;92.21;99571.63;5005521;28;20168;-78
2021/05/13 04:23:23;;;;;;;7.65;6.53;;;;;;;11.25;91.78;99564.53;5022787;28;20030;-78
2021/05/13 04:25:49;;;;;;;8.73;6.85;;;;;;;11.21;91.22;99568.16;5008861;28;20071;-79
2021/05/13 04:28:14;;;;;;;11.85;8.25;;;;;;;11.24;92.14;99569.84;5020858;28;20092;-79
2021/05/13 04:30:40;;;;;;;11.40;8.38;;;;;;;11.25;91.67;99567.19;5007680;28;20042;-77
2021/05/13 04:33:06;;;;;;;11.63;8.43;;;;;;;11.24;91.51;99567.22;5004775;28;20401;-78
2021/05/13 04:35:31;;;;;;;8.27;6.72;;;;;;;11.20;91.54;99577.00;5010001;28;20133;-78
2021/05/13 04:37:56;;;;;;;9.88;7.10;;;;;;;11.22;91.78;99569.03;5010447;28;20038;-79
2021/05/13 04:40:22;;;;;;;8.82;7.20;;;;;;;11.22;90.99;99569.91;5007212;28;20050;-79
2021/05/13 04:42:47;;;;;;;11.23;6.85;;;;;;;11.19;91.20;99575.25;5003271;28;20025;-78
2021/05/13 04:45:12;;;;;;;7.70;6.03;;;;;;;11.24;91.30;99578.66;5005905;28;20510;-78
2021/05/13 04:50:07;;;;;;;7.32;5.82;;;;;;;11.23;91.67;99576.91;5011822;28;20036;-77
2021/05/13 04:52:32;;;;;;;11.93;8.07;;;;;;;11.20;92.02;99582.28;5003743;28;20038;-77
2021/05/13 04:54:58;;;;;;;8.23;5.57;;;;;;;11.26;91.67;99576.84;5012970;28;20081;-77
2021/05/13 04:57:25;;;;;;;9.63;6.32;;;;;;;11.30;91.47;99586.44;5009393;28;20077;-77
2021/05/13 04:59:50;;;;;;;8.45;6.15;;;;;;;11.36;90.98;99575.72;5005284;28;20073;-77
2021/05/13 05:02:16;;;;;;;8.00;6.50;;;;;;;11.31;91.06;99574.94;5017843;28;20070;-77
2021/05/13 05:04:41;;;;;;;6.90;5.65;;;;;;;11.36;90.50;99585.41;5005109;28;20038;-77
2021/05/13 05:07:07;;;;;;;7.10;5.20;;;;;;;11.30;90.83;99578.50;5004585;28;20041;-77
2021/05/13 05:09:32;;;;;;;9.68;5.75;;;;;;;11.29;91.29;99574.13;5002693;28;20096;-75
2021/05/13 05:11:58;;;;;;;7.93;5.72;;;;;;;11.33;91.32;99578.44;5005489;28;20080;-77
2021/05/13 05:14:24;;;;;;;7.95;5.70;;;;;;;11.31;91.28;99576.72;5008294;28;20065;-77
2021/05/13 05:16:49;;;;;;;7.50;5.15;;;;;;;11.38;91.35;99575.69;5003226;28;20451;-76
2021/05/13 05:19:15;;;;;;;6.60;4.90;;;;;;;11.35;91.10;99568.69;5005942;28;20038;-77
2021/05/13 05:21:40;;;;;;;6.82;4.82;;;;;;;11.33;90.63;99575.78;5003087;28;20636;-77
2021/05/13 05:24:06;;;;;;;7.05;4.78;;;;;;;11.38;91.14;99571.25;5003669;28;20034;-76
2021/05/13 05:26:33;;;;;;;6.72;5.22;;;;;;;11.39;91.04;99567.69;5005240;28;20460;-76
2021/05/13 05:28:58;;;;;;;6.85;4.82;;;;;;;11.38;90.50;99567.75;5007591;28;20032;-77
2021/05/13 05:31:24;;;;;;;7.63;5.60;;;;;;;11.34;91.58;99556.41;5005796;28;20451;-76
2021/05/13 05:33:49;;;;;;;8.10;6.10;;;;;;;11.35;91.56;99567.84;5002629;28;20039;-76
2021/05/13 05:36:15;;;;;;;9.63;6.82;;;;;;;11.38;91.69;99573.91;5004797;28;20060;-75
2021/05/13 05:38:40;;;;;;;7.35;5.45;;;;;;;11.42;91.50;99577.31;5003337;28;20400;-76
2021/05/13 05:41:05;;;;;;;6.88;5.47;;;;;;;11.43;91.46;99572.94;5003088;28;20042;-76
2021/05/13 05:43:31;;;;;;;7.07;5.57;;;;;;;11.43;91.16;99573.78;5004739;28;20065;-75
2021/05/13 05:45:56;;;;;;;8.77;5.60;;;;;;;11.44;91.76;99574.66;5007021;28;20543;-76
2021/05/13 05:48:21;;;;;;;6.65;5.20;;;;;;;11.44;91.87;99572.00;5005843;28;20045;-76
2021/05/13 05:50:47;;;;;;;6.40;5.07;;;;;;;11.50;91.52;99572.75;5002025;28;20038;-76
2021/05/13 05:53:13;;;;;;;6.68;5.60;;;;;;;11.48;91.78;99571.91;5004471;28;20034;-76
2021/05/13 05:55:39;;;;;;;5.90;4.63;;;;;;;11.54;91.07;99570.88;5003002;28;20547;-76
2021/05/13 05:58:05;;;;;;;7.90;4.95;;;;;;;11.46;91.40;99573.72;5002467;28;20042;-76
2021/05/13 06:00:30;;;;;;;7.18;5.75;;;;;;;11.50;91.11;99569.22;5004483;28;20034;-76
2021/05/13 06:02:56;;;;;;;6.43;4.60;;;;;;;11.50;91.22;99580.66;5002279;28;20082;-76
2021/05/13 06:05:23;;;;;;;5.97;4.72;;;;;;;11.50;90.79;99570.09;5002639;28;20048;-76
2021/05/13 06:07:49;;;;;;;8.07;5.00;;;;;;;11.47;91.00;99570.16;5028032;28;20400;-76
2021/05/13 06:10:14;;;;;;;5.15;4.18;;;;;;;11.52;91.11;99572.69;5004248;28;20037;-75
2021/05/13 06:12:41;;;;;;;6.72;4.50;;;;;;;11.51;90.69;99574.47;5002994;28;20031;-75
2021/05/13 06:15:12;;;;;;;6.90;4.78;;;;;;;11.48;91.30;99565.75;5001746;28;20057;-76
2021/05/13 06:17:38;;;;;;;7.00;4.80;;;;;;;11.50;90.87;99567.47;5003544;28;20108;-78
2021/05/13 06:20:06;;;;;;;7.80;5.57;;;;;;;11.49;91.04;99568.34;5003394;28;20195;-76
2021/05/13 06:22:31;;;;;;;6.13;4.00;;;;;;;11.55;90.70;99570.84;5001523;28;20411;-79
2021/05/13 06:24:57;;;;;;;6.43;4.55;;;;;;;11.48;90.86;99571.03;5008729;28;20030;-76
2021/05/13 06:27:23;;;;;;;8.00;5.13;;;;;;;11.49;91.68;99570.97;5008301;28;20093;-80
2021/05/13 06:29:49;;;;;;;8.43;5.57;;;;;;;11.53;91.52;99569.16;5029631;28;20113;-80
2021/05/13 06:32:15;;;;;;;6.40;4.80;;;;;;;11.52;91.70;99572.69;5006791;28;20088;-80
2021/05/13 06:34:40;;;;;;;7.25;6.10;;;;;;;11.49;91.45;99568.34;5013456;28;20065;-79
2021/05/13 06:37:05;;;;;;;6.00;4.90;;;;;;;11.55;91.57;99560.28;5014019;28;20057;-80
2021/05/13 06:39:32;;;;;;;7.47;5.75;;;;;;;11.50;91.51;99572.75;5008841;28;20041;-80
2021/05/13 06:41:59;;;;;;;8.15;5.13;;;;;;;11.52;91.40;99564.75;5007503;28;20021;-80
2021/05/13 06:44:25;;;;;;;8.68;5.18;;;;;;;11.49;92.08;99573.63;5008411;28;20423;-78
2021/05/13 06:46:51;;;;;;;6.07;4.43;;;;;;;11.50;91.93;99569.22;5011272;28;20040;-80
2021/05/13 06:49:16;;;;;;;7.55;5.50;;;;;;;11.46;92.04;99568.44;5002982;28;20029;-80
2021/05/13 06:51:41;;;;;;;6.95;5.75;;;;;;;11.53;91.91;99566.50;5009280;28;20046;-80
2021/05/13 06:54:07;;;;;;;6.55;5.32;;;;;;;11.53;91.32;99558.59;5005175;28;20064;-79
2021/05/13 06:56:32;;;;;;;7.90;5.97;;;;;;;11.55;91.78;99562.94;5023407;28;20038;-80
2021/05/13 06:58:58;;;;;;;10.20;6.10;;;;;;;11.57;92.08;99557.59;5006833;28;20058;-80
2021/05/13 07:01:24;;;;;;;9.10;6.80;;;;;;;11.61;91.98;99568.03;5003102;28;20035;-80
2021/05/13 07:03:49;;;;;;;6.72;5.40;;;;;;;11.59;91.61;99563.69;5029474;28;20049;-79
2021/05/13 07:06:14;;;;;;;7.82;5.57;;;;;;;11.53;91.88;99558.59;5005207;28;20109;-80
2021/05/13 07:08:40;;;;;;;10.32;7.18;;;;;;;11.53;92.13;99561.22;5005381;28;20407;-80
2021/05/13 07:11:05;;;;;;;8.10;5.82;;;;;;;11.56;92.24;99564.66;5018051;28;20038;-80
2021/05/13 07:13:30;;;;;;;9.38;5.75;;;;;;;11.60;91.22;99568.06;5005375;28;20062;-80
2021/05/13 07:15:56;;;;;;;8.40;6.30;;;;;;;11.54;91.38;99573.53;5003059;28;20040;-80
2021/05/13 07:18:21;;;;;;;6.53;4.93;;;;;;;11.55;91.72;99569.97;5005668;28;20038;-80
2021/05/13 07:20:47;;;;;;;8.73;6.15;;;;;;;11.58;91.55;99564.59;5002459;28;20046;-80
2021/05/13 07:23:13;;;;;;;9.57;6.40;;;;;;;11.60;91.49;99568.06;5003096;28;20037;-80
2021/05/13 07:25:39;;;;;;;8.07;5.05;;;;;;;11.68;92.14;99567.88;5012709;28;20124;-80
2021/05/13 07:28:05;;;;;;;7.25;5.10;;;;;;;11.69;92.24;99569.63;5001329;28;20092;-80
2021/05/13 07:30:30;;;;;;;8.55;5.35;;;;;;;11.74;92.26;99571.25;5003191;28;20033;-81
2021/05/13 07:32:56;;;;;;;5.80;4.43;;;;;;;11.71;91.73;99568.69;5004022;28;20464;-80
2021/05/13 07:35:22;;;;;;;6.75;5.10;;;;;;;11.72;92.06;99575.69;5003031;28;20034;-81
2021/05/13 07:37:48;;;;;;;8.25;5.38;;;;;;;11.77;91.73;99571.16;5005063;28;20041;-80
2021/05/13 07:40:18;;;;;;;6.68;4.95;;;;;;;11.82;91.35;99571.03;5004438;28;20030;-81
2021/05/13 07:42:44;;;;;;;7.20;5.22;;;;;;;11.83;91.64;99570.97;5001466;28;20035;-80
2021/05/13 07:45:11;;;;;;;7.50;4.80;;;;;;;11.82;91.59;99571.03;5020269;28;20056;-81
2021/05/13 07:47:37;;;;;;;7.28;5.35;;;;;;;11.82;91.60;99563.97;5004777;28;20053;-81
2021/05/13 07:50:16;;;;;;;8.57;6.13;;;;;;;11.80;91.92;99563.13;5017899;28;20107;-80
2021/05/13 07:52:41;;;;;;;7.22;4.90;;;;;;;11.83;91.30;99567.47;5002933;28;20050;-80
2021/05/13 07:55:08;;;;;;;8.05;5.50;;;;;;;11.74;91.18;99576.53;5004943;28;20038;-80
2021/05/13 07:57:34;;;;;;;9.63;6.35;;;;;;;11.76;91.58;99565.91;5003185;28;20042;-80
2021/05/13 07:59:59;;;;;;;8.40;5.75;;;;;;;11.73;91.37;99569.47;5005185;28;20041;-80
2021/05/13 08:02:25;;;;;;;7.20;5.60;;;;;;;11.67;91.70;99563.50;5015393;28;20038;-80
2021/05/13 08:04:50;;;;;;;9.55;6.68;;;;;;;11.69;90.97;99569.63;5007935;28;20038;-81
2021/05/13 08:07:21;;;;;;;8.90;6.78;;;;;;;11.68;90.96;99567.88;5008156;28;20038;-80
2021/05/13 08:09:47;;;;;;;9.20;7.25;;;;;;;11.70;91.07;99552.84;5006249;28;20030;-80
2021/05/13 08:12:13;;;;;;;9.63;6.03;;;;;;;11.63;90.95;99550.38;5007099;28;20030;-80
2021/05/13 08:14:38;;;;;;;9.60;6.38;;;;;;;11.61;90.45;99551.31;5029370;28;20515;-80
2021/05/13 08:17:04;;;;;;;9.52;6.78;;;;;;;11.64;90.90;99545.94;5009698;28;20116;-80
2021/05/13 08:19:30;;;;;;;7.65;5.95;;;;;;;11.72;90.97;99546.63;5006087;28;20057;-80
2021/05/13 08:21:55;;;;;;;9.63;7.32;;;;;;;11.69;91.33;99549.34;5005988;28;20059;-80
2021/05/13 08:24:21;;;;;;;9.77;6.63;;;;;;;11.68;90.97;99544.94;5013881;28;20041;-81
2021/05/13 08:26:46;;;;;;;9.48;6.97;;;;;;;11.77;91.49;99550.00;5024412;28;20080;-81
2021/05/13 08:29:11;;;;;;;7.93;5.70;;;;;;;11.84;91.32;99554.22;5028139;28;20034;-80
2021/05/13 08:31:37;;;;;;;7.28;6.10;;;;;;;11.80;90.53;99547.28;5009560;28;20431;-81
2021/05/13 08:34:02;;;;;;;9.23;6.68;;;;;;;11.81;90.67;99543.72;5005987;28;20034;-81
2021/05/13 08:36:28;;;;;;;8.55;6.07;;;;;;;11.81;91.09;99545.50;5007365;28;20034;-81
2021/05/13 08:38:53;;;;;;;7.80;5.75;;;;;;;11.82;91.07;99540.19;5006678;28;20046;-80
2021/05/13 08:41:19;;;;;;;9.02;6.20;;;;;;;11.81;90.56;99548.13;5005759;28;20043;-81
2021/05/13 08:43:49;;;;;;;8.35;6.20;;;;;;;11.74;90.24;99551.88;5008295;28;20073;-80
2021/05/13 08:46:16;;;;;;;6.13;5.00;;;;;;;11.62;90.60;99539.84;5008108;28;20057;-81
2021/05/13 08:48:43;;;;;;;8.52;5.38;;;;;;;11.57;90.45;99549.66;5015749;28;20389;-81
2021/05/13 08:51:09;;;;;;;8.48;5.68;;;;;;;11.50;89.79;99541.03;5026571;28;20030;-80
2021/05/13 08:53:49;;;;;;;7.40;5.75;;;;;;;11.39;90.51;99546.56;5009525;28;20042;-81
2021/05/13 08:56:16;;;;;;;9.02;6.63;;;;;;;11.36;90.49;99541.34;5006484;28;20050;-81
2021/05/13 08:58:42;;;;;;;9.18;6.07;;;;;;;11.34;90.63;99539.66;5005137;28;20457;-81
2021/05/13 09:01:13;;;;;;;9.27;6.78;;;;;;;11.34;91.11;99540.56;5015116;28;20069;-81
2021/05/13 09:03:38;;;;;;;10.25;6.13;;;;;;;11.38;91.13;99544.84;5007306;28;20492;-81
2021/05/13 09:06:05;;;;;;;9.85;5.75;;;;;;;11.39;91.21;99546.56;5008210;28;20084;-81
2021/05/13 09:08:31;;;;;;;7.40;5.65;;;;;;;11.40;90.63;99548.31;5005455;28;20085;-81
2021/05/13 09:11:13;;;;;;;10.18;5.60;;;;;;;11.31;90.39;99540.59;4989357;28;20029;-81
2021/05/13 09:13:39;;;;;;;9.18;6.35;;;;;;;11.33;90.96;99556.44;5006402;28;20038;-81
2021/05/13 09:16:24;;;;;;;6.88;5.28;;;;;;;11.30;90.29;99546.81;5005215;28;20054;-81
2021/05/13 09:18:49;;;;;;;8.50;5.80;;;;;;;11.34;90.72;99543.19;5010722;28;20050;-81
2021/05/13 09:21:15;;;;;;;8.07;5.78;;;;;;;11.37;90.22;99545.75;5007886;28;20052;-81
2021/05/13 09:23:40;;;;;;;8.10;5.45;;;;;;;11.36;90.32;99551.06;5005104;28;20038;-81
2021/05/13 09:26:11;;;;;;;6.25;4.45;;;;;;;11.32;90.08;99544.16;5007324;28;20062;-81
2021/05/13 09:28:37;;;;;;;6.18;4.03;;;;;;;11.35;89.69;99544.06;5007787;28;20040;-80
2021/05/13 09:31:03;;;;;;;7.20;4.35;;;;;;;11.38;90.01;99544.84;5005555;28;20420;-81
2021/05/13 09:33:31;;;;;;;5.22;4.25;;;;;;;11.42;89.26;99540.34;5005859;28;20045;-80
2021/05/13 09:36:16;;;;;;;8.18;3.88;;;;;;;11.45;90.07;99550.84;5007733;28;20033;-81
2021/05/13 09:38:42;;;;;;;5.80;3.42;;;;;;;11.45;88.54;99540.28;5013547;28;20396;-81
2021/05/13 09:41:08;;;;;;;5.18;3.92;;;;;;;11.47;88.67;99545.50;5005480;28;20046;-81
2021/05/13 09:43:33;;;;;;;6.00;4.10;;;;;;;11.46;89.11;99579.00;5006156;28;20048;-81
2021/05/13 09:46:03;;;;;;;6.45;3.92;;;;;;;11.39;89.22;99562.41;5007333;28;20041;-81
2021/05/13 09:48:45;;;;;;;7.43;4.82;;;;;;;11.36;88.65;99562.50;5005885;28;20037;-81
2021/05/13 09:51:28;;;;;;;7.28;5.22;;;;;;;11.30;88.95;99567.94;5004700;28;20046;-81
2021/05/13 09:54:12;;;;;;;9.15;6.05;;;;;;;11.26;88.23;99560.13;5003398;28;20066;-81
2021/05/13 09:56:58;;;;;;;6.47;4.90;;;;;;;11.18;88.93;99568.22;5004357;28;20070;-81
2021/05/13 09:59:38;;;;;;;6.97;4.97;;;;;;;11.17;89.18;99571.78;5004163;28;20042;-81
2021/05/13 10:02:07;;;;;;;7.57;4.78;;;;;;;11.09;88.27;99565.81;5003295;28;20552;-81
2021/05/13 10:04:33;;;;;;;7.75;5.53;;;;;;;11.02;88.61;99566.88;5021668;28;20032;-80
2021/05/13 10:06:59;;;;;;;11.63;6.03;;;;;;;11.03;88.87;99574.75;5014253;28;20403;-81
2021/05/13 10:09:25;;;;;;;6.28;4.80;;;;;;;10.93;88.67;99562.69;5003431;28;20053;-81
2021/05/13 10:11:51;;;;;;;6.97;4.82;;;;;;;10.99;88.08;99566.94;5006434;28;20401;-81
2021/05/13 10:14:19;;;;;;;7.20;5.00;;;;;;;10.94;88.06;99567.03;5005634;28;20041;-81
2021/05/13 10:16:47;;;;;;;7.40;4.70;;;;;;;10.96;88.36;99568.75;5004481;28;20061;-80
2021/05/13 10:19:16;;;;;;;8.13;4.28;;;;;;;10.93;88.26;99558.25;5006779;28;20056;-81
2021/05/13 10:21:43;;;;;;;7.82;4.90;;;;;;;10.89;87.98;99568.91;5005533;28;20053;-81
2021/05/13 10:24:11;;;;;;;6.63;4.75;;;;;;;10.99;89.23;99559.03;5004717;28;20117;-80
2021/05/13 10:26:37;;;;;;;7.43;5.07;;;;;;;10.96;87.72;99568.75;5006171;28;20431;-79
2021/05/13 10:29:31;;;;;;;6.78;4.95;;;;;;;10.94;87.63;99565.25;5006234;28;20052;-80
2021/05/13 10:31:59;;;;;;;6.85;4.88;;;;;;;11.01;88.10;99562.50;4993964;28;20054;-80
2021/05/13 10:34:57;;;;;;;8.50;5.78;;;;;;;11.01;87.70;99566.00;5011051;28;20036;-80
2021/05/13 10:37:31;;;;;;;8.07;4.70;;;;;;;11.00;87.91;99566.03;4999226;28;20046;-80
2021/05/13 10:40:13;;;;;;;10.57;5.20;;;;;;;11.01;87.23;99560.72;5005278;28;20056;-80
2021/05/13 10:42:39;;;;;;;6.72;4.85;;;;;;;11.04;87.93;99565.91;5003395;28;20120;-81
2021/05/13 10:45:23;;;;;;;7.70;5.25;;;;;;;10.99;87.43;99559.88;5007761;28;20519;-80
2021/05/13 10:48:07;;;;;;;6.65;4.60;;;;;;;11.09;87.79;99561.41;5006685;28;20050;-81
2021/05/13 10:50:44;;;;;;;7.78;4.32;;;;;;;11.05;87.69;99556.22;5005314;28;20176;-81
2021/05/13 10:53:39;;;;;;;8.63;5.45;;;;;;;11.05;87.09;99551.81;5021693;28;20046;-81
2021/05/13 10:56:24;;;;;;;9.77;5.13;;;;;;;11.12;87.35;99553.41;5005372;28;20050;-81
2021/05/13 10:59:05;;;;;;;8.57;4.47;;;;;;;11.21;87.45;99552.31;5006490;28;20042;-80
2021/05/13 11:01:39;;;;;;;8.27;5.00;;;;;;;11.16;86.78;99540.97;5005683;28;20046;-80
2021/05/13 11:04:24;;;;;;;6.25;4.60;;;;;;;11.26;87.74;99544.28;5018747;28;20085;-81
2021/05/13 11:06:56;;;;;;;7.47;5.05;;;;;;;11.25;87.76;99538.13;5002799;28;20058;-81
2021/05/13 11:09:39;;;;;;;7.22;4.32;;;;;;;11.36;86.49;99538.72;5003357;28;20035;-81
2021/05/13 11:12:13;;;;;;;7.72;4.90;;;;;;;11.32;86.56;99544.16;5008010;28;20052;-81
2021/05/13 11:15:00;;;;;;;8.98;4.50;;;;;;;11.21;86.01;99541.72;5004786;28;20033;-81
2021/05/13 11:18:03;;;;;;;7.97;4.65;;;;;;;11.21;86.26;99531.16;5025150;28;20046;-81
2021/05/13 11:20:30;;;;;;;8.77;5.68;;;;;;;11.29;86.90;99541.56;5020254;28;20083;-81
2021/05/13 11:23:19;;;;;;;10.07;5.30;;;;;;;11.23;85.54;99549.63;5026128;28;20492;-81
2021/05/13 11:25:54;;;;;;;8.05;5.13;;;;;;;11.19;86.65;99538.28;5008930;28;20056;-80
2021/05/13 11:28:56;;;;;;;8.43;5.68;;;;;;;11.31;86.56;99531.81;5012087;28;20057;-81
2021/05/13 11:31:21;;;;;;;7.30;4.95;;;;;;;11.24;86.37;99554.91;4988849;28;20468;-81
2021/05/13 11:33:56;;;;;;;10.82;6.15;;;;;;;11.19;86.57;99538.28;5001556;28;20069;-81
2021/05/13 11:36:28;;;;;;;10.10;6.13;;;;;;;11.26;85.62;99539.00;5004196;28;20057;-81
2021/05/13 11:38:59;;;;;;;8.05;6.03;;;;;;;11.27;85.81;99538.97;5029334;28;20046;-79
2021/05/13 11:41:25;;;;;;;7.88;5.57;;;;;;;11.36;86.09;99529.94;5002542;28;20041;-80
2021/05/13 11:43:51;;;;;;;8.93;5.72;;;;;;;11.47;85.48;99529.66;5005804;28;20037;-80
2021/05/13 11:46:22;;;;;;;7.90;5.43;;;;;;;11.60;85.60;99517.84;5003053;28;20465;-80
2021/05/13 11:48:49;;;;;;;7.40;5.20;;;;;;;11.59;85.22;99532.84;5002521;28;20508;-81